Airfield :
LOGIN :

Register | Disclaimer

   EN    FR    IT 

 










Legend :    VFR   Marginal VFR   IFR   Intensive IFR   Very Intensive IFR
Visi :
Ceiling :
>= 8 km
>= 3000ft
5 to 8 km
1000 to 3000 ft
1500m to 5 km
500 to 1000 ft
800 to 1500m
200 to 500 ft
< 800m
< 200 ft
Symbols :   Thunderstorms  Fog  Heavy snow  Heavy precipitations  Wind > 20 kt
SIGMETs :     Misc.  Thunderstorms  Icing  Turbulence  Mountain Waves  Volcanic Ashes






- Airport Elevation : 1766 ft


ETHL - Laupheim AB

CURRENT METAR :
  • 031920Z 19004KT 9999 FEW050 BKN090 BKN210 18/10 Q1003 BLU BLU

EXPIRED METARs :
  • 031820Z 21002KT 9999 FEW050 SCT110 BKN250 19/10 Q1003 BLU+BLU TEMPO BLU+
  • 031720Z 23004KT 9999 FEW050 BKN250 21/08 Q1003 BLU+BLU TEMPO BLU+

TAF TAF ETHL
Valid from the 03 at 20:00 until the 04 at 05:00 UTC


031920Z 0320/0405 24005KT 9999 NSW FEW050 BKN090
TEMPO 0320/0402 22010G20KT 8000 SHRA FEW020 BKN045CB
PROB30 0320/0402 VRB10G25KT 5000 +TSRA FEW015 BKN040CB
TEMPO 0402/0405 21005G15KT 8000 -SHRA FEW020 BKN035TCU



MET'MAP, your aeronautical weather chart ! - Copyright ORBIFLY December 2007 - Disclaimer

ORBIFLY MET'MAP TEAM :

Programming & Development : Alexandra Zaïnal
Concept & original design : Baudouin d'Aumeries
Assistance for programming : Marc-Olivier Méhu
Technical & hardware support : Manuel Goepfert

Contact : metmap@orbifly.com




SOURCES & CREDITS :

   NOAA